createdAt,value
2018-08-12T00:01:39.461Z,99482.55
2018-08-12T00:04:08.164Z,99477.31
2018-08-12T00:06:37.333Z,99472.91
2018-08-12T00:09:09.090Z,99477.80
2018-08-12T00:11:37.701Z,99470.04
2018-08-12T00:14:06.457Z,99469.58
2018-08-12T00:16:36.063Z,99461.33
2018-08-12T00:19:05.154Z,99459.95
2018-08-12T00:21:33.712Z,99465.66
2018-08-12T00:24:04.017Z,99459.95
2018-08-12T00:26:32.939Z,99457.19
2018-08-12T00:29:01.839Z,99466.63
2018-08-12T00:31:31.418Z,99464.45
2018-08-12T00:33:59.962Z,99460.66
2018-08-12T00:36:29.339Z,99452.25
2018-08-12T00:38:57.997Z,99460.33
2018-08-12T00:41:26.600Z,99452.84
2018-08-12T00:43:55.156Z,99450.30
2018-08-12T00:46:23.967Z,99454.78
2018-08-12T00:48:52.786Z,99452.23
2018-08-12T00:51:22.672Z,99452.72
2018-08-12T00:53:51.258Z,99447.66
2018-08-12T00:56:19.917Z,99450.36
2018-08-12T00:58:48.692Z,99452.53
2018-08-12T01:01:17.248Z,99452.77
2018-08-12T01:03:46.663Z,99449.45
2018-08-12T01:06:15.652Z,99449.71
2018-08-12T01:08:44.192Z,99451.12
2018-08-12T01:11:13.080Z,99447.36
2018-08-12T01:13:41.655Z,99449.40
2018-08-12T01:16:10.265Z,99444.31
2018-08-12T01:18:39.089Z,99441.52
2018-08-12T01:21:07.925Z,99433.77
2018-08-12T01:23:36.788Z,99430.33
2018-08-12T01:26:06.568Z,99430.86
2018-08-12T01:28:35.332Z,99427.30
2018-08-12T01:31:04.414Z,99428.16
2018-08-12T01:33:33.007Z,99428.27
2018-08-12T01:36:02.284Z,99418.17
2018-08-12T01:38:31.505Z,99419.86
2018-08-12T01:41:00.034Z,99417.55
2018-08-12T01:43:28.838Z,99420.28
2018-08-12T01:45:58.163Z,99417.62
2018-08-12T01:48:26.784Z,99411.81
2018-08-12T01:50:55.540Z,99416.89
2018-08-12T01:53:24.093Z,99415.85
2018-08-12T01:55:52.638Z,99424.03
2018-08-12T01:58:22.464Z,99417.34
2018-08-12T02:00:51.037Z,99416.50
2018-08-12T02:03:20.069Z,99417.14
2018-08-12T02:05:48.668Z,99411.34
2018-08-12T02:08:17.270Z,99411.16
2018-08-12T02:10:46.379Z,99409.91
2018-08-12T02:13:15.376Z,99414.84
2018-08-12T02:15:45.754Z,99414.05
2018-08-12T02:18:15.815Z,99418.63
2018-08-12T02:20:44.371Z,99420.76
2018-08-12T02:23:12.962Z,99416.22
2018-08-12T02:25:41.530Z,99420.34
2018-08-12T02:28:10.191Z,99412.80
2018-08-12T02:30:39.938Z,99405.89
2018-08-12T02:33:08.510Z,99404.91
2018-08-12T02:35:37.656Z,99405.09
2018-08-12T02:38:06.265Z,99406.83
2018-08-12T02:40:34.874Z,99397.40
2018-08-12T02:43:04.396Z,99400.28
2018-08-12T02:45:32.941Z,99397.58
2018-08-12T02:48:01.536Z,99394.70
2018-08-12T02:50:30.079Z,99389.91
2018-08-12T02:52:58.733Z,99381.41
2018-08-12T02:55:27.525Z,99383.11
2018-08-12T02:57:56.102Z,99381.19
2018-08-12T03:00:26.454Z,99379.98
2018-08-12T03:02:55.625Z,99382.91
2018-08-12T03:05:24.258Z,99379.21
2018-08-12T03:07:53.117Z,99374.72
2018-08-12T03:10:21.685Z,99366.78
2018-08-12T03:12:50.574Z,99365.89
2018-08-12T03:15:19.163Z,99360.66
2018-08-12T03:17:47.818Z,99366.15
2018-08-12T03:20:16.420Z,99361.09
2018-08-12T03:22:46.108Z,99356.66
2018-08-12T03:25:14.678Z,99360.25
2018-08-12T03:27:44.122Z,99355.38
2018-08-12T03:30:12.788Z,99352.67
2018-08-12T03:32:42.170Z,99343.94
2018-08-12T03:35:10.750Z,99341.77
2018-08-12T03:37:39.369Z,99340.21
2018-08-12T03:40:11.450Z,99344.83
2018-08-12T03:42:40.161Z,99338.03
2018-08-12T03:45:09.287Z,99340.61
2018-08-12T03:47:37.849Z,99338.42
2018-08-12T03:50:07.685Z,99340.84
2018-08-12T03:52:36.365Z,99332.96
2018-08-12T03:55:06.165Z,99332.43
2018-08-12T03:57:34.768Z,99325.42
2018-08-12T04:00:03.568Z,99328.69
2018-08-12T04:02:33.386Z,99326.51
2018-08-12T04:05:02.189Z,99319.77
2018-08-12T04:07:30.748Z,99316.23
2018-08-12T04:09:59.578Z,99311.55
2018-08-12T04:12:29.305Z,99309.23
2018-08-12T04:14:58.903Z,99312.80
2018-08-12T04:17:28.575Z,99309.55
2018-08-12T04:19:59.899Z,99309.98
2018-08-12T04:22:28.904Z,99313.34
2018-08-12T04:24:57.649Z,99307.32
2018-08-12T04:27:26.657Z,99309.45
2018-08-12T04:29:55.202Z,99309.50
2018-08-12T04:32:23.815Z,99310.83
2018-08-12T04:34:53.153Z,99309.19
2018-08-12T04:37:22.188Z,99307.17
2018-08-12T04:39:50.800Z,99306.91
2018-08-12T04:42:19.349Z,99304.66
2018-08-12T04:44:48.271Z,99304.77
2018-08-12T04:47:18.681Z,99307.32
2018-08-12T04:49:47.256Z,99312.70
2018-08-12T04:52:16.859Z,99309.81
2018-08-12T04:54:45.686Z,99307.59
2018-08-12T04:57:14.666Z,99305.14
2018-08-12T04:59:43.471Z,99297.85
2018-08-12T05:02:12.081Z,99297.63
2018-08-12T05:04:41.354Z,99301.56
2018-08-12T05:07:10.280Z,99299.16
2018-08-12T05:09:39.158Z,99301.95
2018-08-12T05:12:07.761Z,99298.05
2018-08-12T05:14:36.813Z,99298.50
2018-08-12T05:17:05.734Z,99290.41
2018-08-12T05:19:34.777Z,99303.51
2018-08-12T05:22:03.626Z,99297.71
2018-08-12T05:24:32.665Z,99303.51
2018-08-12T05:27:01.604Z,99301.28
2018-08-12T05:29:30.613Z,99304.11
2018-08-12T05:31:59.179Z,99302.44
2018-08-12T05:34:28.253Z,99297.71
2018-08-12T05:36:56.860Z,99294.70
2018-08-12T05:39:25.659Z,99293.93
2018-08-12T05:41:54.221Z,99300.73
2018-08-12T05:44:22.899Z,99295.82
2018-08-12T05:46:51.499Z,99297.16
2018-08-12T05:49:20.574Z,99293.74
2018-08-12T05:51:49.897Z,99293.11
2018-08-12T05:54:18.511Z,99295.89
2018-08-12T05:56:48.257Z,99291.25
2018-08-12T05:59:16.859Z,99290.13
2018-08-12T06:01:47.028Z,99289.30
2018-08-12T06:04:15.941Z,99290.06
2018-08-12T06:06:44.545Z,99289.52
2018-08-12T06:09:14.197Z,99289.91
2018-08-12T06:11:43.181Z,99288.88
2018-08-12T06:14:12.629Z,99289.04
2018-08-12T06:16:41.575Z,99283.00
2018-08-12T06:19:10.773Z,99280.97
2018-08-12T06:21:39.328Z,99281.11
2018-08-12T06:24:07.923Z,99278.42
2018-08-12T06:26:38.130Z,99280.88
2018-08-12T06:29:07.772Z,99280.84
2018-08-12T06:31:36.555Z,99279.76
2018-08-12T06:34:05.159Z,99274.05
2018-08-12T06:36:33.934Z,99271.15
2018-08-12T06:39:03.530Z,99275.63
2018-08-12T06:41:32.079Z,99272.72
2018-08-12T06:44:00.651Z,99270.89
2018-08-12T06:46:29.272Z,99270.67
2018-08-12T06:48:58.382Z,99265.10
2018-08-12T06:51:26.958Z,99269.52
2018-08-12T06:53:56.001Z,99273.42
2018-08-12T06:56:24.575Z,99269.53
2018-08-12T06:58:53.155Z,99268.44
2018-08-12T07:01:22.364Z,99263.34
2018-08-12T07:03:51.957Z,99273.72
2018-08-12T07:06:20.509Z,99272.09
2018-08-12T07:08:49.058Z,99274.27
2018-08-12T07:11:17.843Z,99272.94
2018-08-12T07:13:46.455Z,99268.68
2018-08-12T07:16:15.067Z,99266.75
2018-08-12T07:18:43.662Z,99276.43
2018-08-12T07:21:12.259Z,99264.04
2018-08-12T07:23:41.193Z,99261.64
2018-08-12T07:26:10.634Z,99259.25
2018-08-12T07:28:40.261Z,99253.97
2018-08-12T07:31:10.096Z,99246.64
2018-08-12T07:33:38.963Z,99252.66
2018-08-12T07:36:07.784Z,99251.17
2018-08-12T07:38:36.610Z,99250.98
2018-08-12T07:41:05.199Z,99242.81
2018-08-12T07:43:33.794Z,99244.70
2018-08-12T07:46:03.709Z,99247.73
2018-08-12T07:48:33.505Z,99249.21
2018-08-12T07:51:02.615Z,99241.03
2018-08-12T07:53:31.611Z,99238.48
2018-08-12T07:56:00.797Z,99235.63
2018-08-12T07:58:29.595Z,99234.47
2018-08-12T08:00:58.146Z,99235.11
2018-08-12T08:03:27.056Z,99238.02
2018-08-12T08:05:59.646Z,99232.23
2018-08-12T08:08:28.216Z,99228.27
2018-08-12T08:10:56.905Z,99226.13
2018-08-12T08:13:26.576Z,99227.08
2018-08-12T08:15:55.121Z,99228.73
2018-08-12T08:18:24.533Z,99227.47
2018-08-12T08:20:53.211Z,99225.49
2018-08-12T08:23:22.860Z,99225.29
2018-08-12T08:25:51.467Z,99228.96
2018-08-12T08:28:20.908Z,99217.86
2018-08-12T08:30:50.871Z,99224.45
2018-08-12T08:33:19.825Z,99222.37
2018-08-12T08:35:48.429Z,99219.56
2018-08-12T08:38:18.392Z,99217.31
2018-08-12T08:40:47.297Z,99217.97
2018-08-12T08:43:16.190Z,99219.68
2018-08-12T08:45:45.256Z,99216.91
2018-08-12T08:48:13.818Z,99209.23
2018-08-12T08:50:43.346Z,99214.44
2018-08-12T08:53:12.876Z,99214.03
2018-08-12T08:55:41.649Z,99205.11
2018-08-12T08:58:10.136Z,99212.77
2018-08-12T09:00:38.738Z,99210.00
2018-08-12T09:03:08.570Z,99213.38
2018-08-12T09:05:37.370Z,99201.91
2018-08-12T09:08:06.565Z,99203.94
2018-08-12T09:10:36.141Z,99205.03
2018-08-12T09:13:04.781Z,99197.91
2018-08-12T09:15:33.399Z,99199.19
2018-08-12T09:18:02.322Z,99198.49
2018-08-12T09:20:30.941Z,99200.56
2018-08-12T09:22:59.528Z,99195.52
2018-08-12T09:25:28.166Z,99197.22
2018-08-12T09:27:57.534Z,99197.56
2018-08-12T09:30:26.550Z,99187.23
2018-08-12T09:32:56.116Z,99185.63
2018-08-12T09:35:25.103Z,99182.70
2018-08-12T09:37:54.046Z,99182.28
2018-08-12T09:40:22.742Z,99169.66
2018-08-12T09:42:51.852Z,99176.06
2018-08-12T09:45:21.665Z,99168.88
2018-08-12T09:47:50.237Z,99166.78
2018-08-12T09:50:20.062Z,99165.38
2018-08-12T09:52:49.958Z,99162.00
2018-08-12T09:55:19.852Z,99159.12
2018-08-12T09:57:48.444Z,99155.17
2018-08-12T10:00:23.156Z,99153.05
2018-08-12T10:02:54.177Z,99154.93
2018-08-12T10:05:23.161Z,99149.73
2018-08-12T10:07:52.781Z,99147.89
2018-08-12T10:10:21.690Z,99140.09
2018-08-12T10:12:50.711Z,99135.36
2018-08-12T10:15:19.860Z,99138.05
2018-08-12T10:17:55.651Z,99132.33
2018-08-12T10:20:24.371Z,99133.83
2018-08-12T10:22:59.891Z,99133.16
2018-08-12T10:25:29.656Z,99129.19
2018-08-12T10:27:58.568Z,99131.76
2018-08-12T10:30:27.154Z,99130.58
2018-08-12T10:32:56.077Z,99119.97
2018-08-12T10:35:24.724Z,99111.19
2018-08-12T10:37:53.923Z,99109.98
2018-08-12T10:40:22.484Z,99099.71
2018-08-12T10:42:52.046Z,99094.94
2018-08-12T10:45:21.405Z,99085.14
2018-08-12T10:47:49.963Z,99093.81
2018-08-12T10:50:20.390Z,99088.09
2018-08-12T10:52:50.377Z,99081.73
2018-08-12T10:55:21.440Z,99083.36
2018-08-12T10:57:50.535Z,99079.70
2018-08-12T11:00:24.539Z,99084.48
2018-08-12T11:02:53.451Z,99075.91
2018-08-12T11:05:23.497Z,99069.34
2018-08-12T11:07:53.996Z,99072.59
2018-08-12T11:10:24.141Z,99076.39
2018-08-12T11:12:53.372Z,99069.49
2018-08-12T11:15:21.867Z,99064.52
2018-08-12T11:17:51.409Z,99054.86
2018-08-12T11:20:20.217Z,99049.55
2018-08-12T11:22:49.979Z,99040.37
2018-08-12T11:25:18.602Z,99035.23
2018-08-12T11:27:47.713Z,99044.73
2018-08-12T11:30:17.948Z,99041.25
2018-08-12T11:32:47.289Z,99045.50
2018-08-12T11:35:17.846Z,99034.70
2018-08-12T11:37:47.035Z,99028.81
2018-08-12T11:40:16.065Z,99024.09
2018-08-12T11:42:44.949Z,99025.25
2018-08-12T11:45:15.005Z,99025.89
2018-08-12T11:47:44.298Z,99011.03
2018-08-12T11:50:13.464Z,99015.29
2018-08-12T11:52:42.902Z,99006.95
2018-08-12T11:55:13.307Z,99005.96
2018-08-12T11:57:42.687Z,99011.76
2018-08-12T12:00:13.962Z,98994.63
2018-08-12T12:02:43.183Z,98991.95
2018-08-12T12:05:13.461Z,98996.86
2018-08-12T12:07:42.196Z,98981.13
2018-08-12T12:10:16.827Z,98990.84
2018-08-12T12:12:47.729Z,98988.53
2018-08-12T12:15:17.916Z,98983.91
2018-08-12T12:17:47.543Z,98980.23
2018-08-12T12:20:18.043Z,98986.23
2018-08-12T12:22:48.862Z,98974.08
2018-08-12T12:25:20.272Z,98972.31
2018-08-12T12:27:49.231Z,98957.48
2018-08-12T12:30:20.703Z,98959.30
2018-08-12T12:32:51.070Z,98951.98
2018-08-12T12:35:20.579Z,98948.76
2018-08-12T12:37:49.245Z,98950.19
2018-08-12T12:40:18.920Z,98941.19
2018-08-12T12:42:48.159Z,98943.84
2018-08-12T12:45:17.200Z,98937.88
2018-08-12T12:47:46.030Z,98932.44
2018-08-12T12:50:20.468Z,98931.16
2018-08-12T12:52:49.886Z,98926.73
2018-08-12T12:55:20.041Z,98914.06
2018-08-12T12:57:48.984Z,98910.72
2018-08-12T13:00:20.574Z,98900.83
2018-08-12T13:02:49.610Z,98906.80
2018-08-12T13:05:20.146Z,98901.23
2018-08-12T13:07:51.196Z,98905.09
2018-08-12T13:10:21.150Z,98907.94
2018-08-12T13:12:50.686Z,98897.59
2018-08-12T13:15:19.474Z,98897.05
2018-08-12T13:17:48.939Z,98894.30
2018-08-12T13:20:19.326Z,98879.29
2018-08-12T13:22:48.841Z,98876.28
2018-08-12T13:25:19.498Z,98871.92
2018-08-12T13:27:48.509Z,98878.40
2018-08-12T13:30:18.591Z,98867.17
2018-08-12T13:32:48.080Z,98866.47
2018-08-12T13:35:17.052Z,98868.73
2018-08-12T13:37:46.021Z,98860.16
2018-08-12T13:40:19.028Z,98849.42
2018-08-12T13:42:54.572Z,98844.86
2018-08-12T13:45:24.751Z,98849.72
2018-08-12T13:47:54.817Z,98848.30
2018-08-12T13:50:24.451Z,98840.85
2018-08-12T13:52:53.772Z,98833.80
2018-08-12T13:55:23.422Z,98826.77
2018-08-12T13:57:53.783Z,98836.79
2018-08-12T14:00:26.487Z,98837.45
2018-08-12T14:02:55.416Z,98830.53
2018-08-12T14:05:24.461Z,98828.34
2018-08-12T14:10:56.702Z,98815.84
2018-08-12T14:13:30.117Z,98802.80
2018-08-12T14:15:58.910Z,98803.47
2018-08-12T14:18:27.507Z,98796.80
2018-08-12T14:20:56.388Z,98784.05
2018-08-12T14:23:25.585Z,98789.31
2018-08-12T14:25:54.126Z,98781.84
2018-08-12T14:28:22.703Z,98779.41
2018-08-12T14:30:51.257Z,98777.30
2018-08-12T14:33:21.215Z,98774.60
2018-08-12T14:35:49.862Z,98762.02
2018-08-12T14:38:18.474Z,98756.34
2018-08-12T14:40:47.044Z,98758.23
2018-08-12T14:43:15.632Z,98755.69
2018-08-12T14:45:45.326Z,98747.82
2018-08-12T14:48:13.884Z,98746.30
2018-08-12T14:50:42.833Z,98750.50
2018-08-12T14:53:11.625Z,98735.28
2018-08-12T14:55:40.895Z,98735.08
2018-08-12T14:58:09.480Z,98718.15
2018-08-12T15:00:38.628Z,98730.44
2018-08-12T15:03:23.756Z,98719.71
2018-08-12T15:05:55.796Z,98722.19
2018-08-12T15:08:24.569Z,98720.80
2018-08-12T15:10:53.184Z,98714.64
2018-08-12T15:13:21.752Z,98721.80
2018-08-12T15:15:50.851Z,98709.66
2018-08-12T15:18:20.461Z,98711.41
2018-08-12T15:20:49.296Z,98709.34
2018-08-12T15:23:17.850Z,98715.71
2018-08-12T15:25:46.403Z,98704.44
2018-08-12T15:28:15.818Z,98704.08
2018-08-12T15:30:44.405Z,98702.44
2018-08-12T15:33:12.936Z,98691.70
2018-08-12T15:35:41.611Z,98688.58
2018-08-12T15:38:10.611Z,98686.31
2018-08-12T15:40:41.136Z,98700.51
2018-08-12T15:43:09.688Z,98684.39
2018-08-12T15:45:38.338Z,98682.92
2018-08-12T15:48:08.129Z,98681.48
2018-08-12T15:50:36.775Z,98675.34
2018-08-12T15:53:06.601Z,98673.58
2018-08-12T15:55:35.213Z,98680.63
2018-08-12T15:58:03.832Z,98667.91
2018-08-12T16:00:32.425Z,98665.34
2018-08-12T16:03:02.206Z,98666.66
2018-08-12T16:05:31.143Z,98663.91
2018-08-12T16:08:00.280Z,98662.61
2018-08-12T16:10:29.173Z,98654.42
2018-08-12T16:12:57.728Z,98652.53
2018-08-12T16:15:26.962Z,98654.73
2018-08-12T16:17:55.532Z,98647.56
2018-08-12T16:20:24.115Z,98642.47
2018-08-12T16:22:52.746Z,98641.64
2018-08-12T16:25:22.123Z,98641.03
2018-08-12T16:27:51.129Z,98638.17
2018-08-12T16:30:20.022Z,98636.11
2018-08-12T16:32:48.639Z,98636.81
2018-08-12T16:35:18.019Z,98630.41
2018-08-12T16:37:47.185Z,98624.13
2018-08-12T16:40:17.930Z,98626.27
2018-08-12T16:42:47.018Z,98624.23
2018-08-12T16:45:17.197Z,98616.67
2018-08-12T16:47:46.236Z,98613.11
2018-08-12T16:50:15.682Z,98609.85
2018-08-12T16:52:45.922Z,98604.00
2018-08-12T16:55:16.324Z,98607.12
2018-08-12T16:57:46.218Z,98603.17
2018-08-12T17:00:17.165Z,98599.58
2018-08-12T17:02:46.405Z,98601.44
2018-08-12T17:05:17.955Z,98600.48
2018-08-12T17:07:47.338Z,98594.20
2018-08-12T17:10:18.035Z,98587.58
2018-08-12T17:12:47.000Z,98587.34
2018-08-12T17:15:18.100Z,98581.22
2018-08-12T17:17:47.444Z,98576.61
2018-08-12T17:20:18.118Z,98581.94
2018-08-12T17:22:47.365Z,98575.25
2018-08-12T17:25:16.092Z,98575.78
2018-08-12T17:27:44.662Z,98568.91
2018-08-12T17:30:15.156Z,98566.22
2018-08-12T17:32:43.743Z,98565.03
2018-08-12T17:35:12.558Z,98570.43
2018-08-12T17:37:42.192Z,98565.12
2018-08-12T17:40:12.373Z,98566.09
2018-08-12T17:42:41.405Z,98561.52
2018-08-12T17:45:11.585Z,98559.36
2018-08-12T17:47:40.591Z,98555.41
2018-08-12T17:50:10.720Z,98548.50
2018-08-12T17:52:40.322Z,98555.52
2018-08-12T17:55:09.988Z,98557.94
2018-08-12T17:57:38.613Z,98557.72
2018-08-12T18:00:17.076Z,98558.62
2018-08-12T18:02:45.937Z,98555.42
2018-08-12T18:05:14.747Z,98550.95
2018-08-12T18:10:29.290Z,98555.81
2018-08-12T18:12:57.875Z,98555.36
2018-08-12T18:15:26.804Z,98552.91
2018-08-12T18:17:55.417Z,98559.56
2018-08-12T18:20:26.063Z,98554.47
2018-08-12T18:22:55.356Z,98555.27
2018-08-12T18:25:24.268Z,98550.77
2018-08-12T18:27:53.518Z,98549.78
2018-08-12T18:30:22.103Z,98551.41
2018-08-12T18:32:52.135Z,98546.84
2018-08-12T18:35:20.712Z,98547.28
2018-08-12T18:37:49.291Z,98549.18
2018-08-12T18:40:20.031Z,98553.01
2018-08-12T18:42:48.626Z,98548.92
2018-08-12T18:45:17.201Z,98551.27
2018-08-12T18:47:45.774Z,98545.10
2018-08-12T18:50:14.380Z,98545.84
2018-08-12T18:52:42.997Z,98546.16
2018-08-12T18:55:13.467Z,98542.64
2018-08-12T18:57:42.059Z,98553.19
2018-08-12T19:00:14.004Z,98551.80
2018-08-12T19:02:43.764Z,98550.33
2018-08-12T19:05:13.732Z,98556.30
2018-08-12T19:07:43.601Z,98553.05
2018-08-12T19:10:12.719Z,98545.44
2018-08-12T19:12:43.116Z,98558.76
2018-08-12T19:15:13.107Z,98564.11
2018-08-12T19:17:42.085Z,98566.40
2018-08-12T19:20:11.259Z,98567.13
2018-08-12T19:22:40.775Z,98564.34
2018-08-12T19:25:10.293Z,98558.05
2018-08-12T19:27:39.017Z,98550.55
2018-08-12T19:30:10.302Z,98559.41
2018-08-12T19:32:39.523Z,98549.55
2018-08-12T19:35:08.885Z,98549.78
2018-08-12T19:37:37.488Z,98548.74
2018-08-12T19:40:07.065Z,98542.81
2018-08-12T19:42:36.045Z,98546.92
2018-08-12T19:45:05.201Z,98547.06
2018-08-12T19:47:35.309Z,98546.09
2018-08-12T19:50:03.953Z,98540.56
2018-08-12T19:52:32.936Z,98534.27
2018-08-12T19:55:02.444Z,98537.03
2018-08-12T19:57:31.513Z,98539.86
2018-08-12T20:00:00.428Z,98537.14
2018-08-12T20:02:29.401Z,98539.21
2018-08-12T20:04:58.273Z,98535.63
2018-08-12T20:07:26.928Z,98542.20
2018-08-12T20:09:55.829Z,98538.27
2018-08-12T20:12:24.674Z,98542.66
2018-08-12T20:14:53.539Z,98534.42
2018-08-12T20:17:22.537Z,98538.17
2018-08-12T20:19:51.986Z,98532.62
2018-08-12T20:22:20.925Z,98530.00
2018-08-12T20:24:49.804Z,98533.28
2018-08-12T20:27:18.654Z,98537.25
2018-08-12T20:29:48.128Z,98535.39
2018-08-12T20:32:16.714Z,98536.33
2018-08-12T20:34:45.270Z,98530.66
2018-08-12T20:37:14.319Z,98531.83
2018-08-12T20:39:43.618Z,98525.75
2018-08-12T20:42:16.546Z,98530.93
2018-08-12T20:44:45.112Z,98535.30
2018-08-12T20:47:13.767Z,98518.70
2018-08-12T20:49:43.105Z,98525.02
2018-08-12T20:52:11.956Z,98525.46
2018-08-12T20:54:40.473Z,98525.41
2018-08-12T20:57:09.446Z,98519.00
2018-08-12T20:59:39.390Z,98516.00
2018-08-12T21:02:08.222Z,98509.89
2018-08-12T21:04:37.855Z,98505.29
2018-08-12T21:07:07.420Z,98503.86
2018-08-12T21:09:42.648Z,98501.78
2018-08-12T21:12:12.277Z,98499.68
2018-08-12T21:14:41.996Z,98494.40
2018-08-12T21:17:10.872Z,98497.57
2018-08-12T21:19:40.060Z,98494.88
2018-08-12T21:22:08.653Z,98485.28
2018-08-12T21:24:37.707Z,98485.87
2018-08-12T21:27:06.801Z,98481.05
2018-08-12T21:29:35.745Z,98476.69
2018-08-12T21:32:05.352Z,98478.27
2018-08-12T21:34:34.702Z,98477.75
2018-08-12T21:37:04.030Z,98475.61
2018-08-12T21:39:32.995Z,98470.23
2018-08-12T21:42:01.945Z,98470.30
2018-08-12T21:44:31.147Z,98474.73
2018-08-12T21:46:59.805Z,98471.91
2018-08-12T21:49:30.148Z,98474.93
2018-08-12T21:51:58.752Z,98471.12
2018-08-12T21:54:27.787Z,98472.17
2018-08-12T21:56:57.363Z,98473.53
2018-08-12T21:59:26.198Z,98469.48
2018-08-12T22:01:54.865Z,98467.78
2018-08-12T22:04:23.562Z,98473.67
2018-08-12T22:06:52.377Z,98469.13
2018-08-12T22:09:22.306Z,98472.50
2018-08-12T22:11:50.865Z,98469.23
2018-08-12T22:14:19.424Z,98461.82
2018-08-12T22:16:49.042Z,98468.39
2018-08-12T22:19:22.314Z,98458.33
2018-08-12T22:21:51.587Z,98466.91
2018-08-12T22:24:20.594Z,98467.41
2018-08-12T22:26:49.729Z,98466.75
2018-08-12T22:29:18.637Z,98472.43
2018-08-12T22:31:47.994Z,98469.80
2018-08-12T22:34:17.100Z,98470.61
2018-08-12T22:36:45.907Z,98465.56
2018-08-12T22:39:15.188Z,98471.95
2018-08-12T22:41:43.763Z,98473.14
2018-08-12T22:44:12.805Z,98462.48
2018-08-12T22:46:42.390Z,98465.82
2018-08-12T22:49:11.286Z,98458.98
2018-08-12T22:51:41.665Z,98468.73
2018-08-12T22:54:10.476Z,98463.52
2018-08-12T22:56:39.025Z,98465.70
2018-08-12T22:59:07.598Z,98461.02
2018-08-12T23:01:37.708Z,98460.71
2018-08-12T23:04:06.858Z,98462.03
2018-08-12T23:06:35.433Z,98462.55
2018-08-12T23:09:06.644Z,98459.04
2018-08-12T23:11:35.210Z,98459.54
2018-08-12T23:14:04.185Z,98450.83
2018-08-12T23:16:44.123Z,98452.34
2018-08-12T23:19:12.771Z,98445.94
2018-08-12T23:21:42.749Z,98450.48
2018-08-12T23:24:11.647Z,98457.20
2018-08-12T23:26:41.229Z,98448.32
2018-08-12T23:29:10.511Z,98443.95
2018-08-12T23:31:39.294Z,98434.06
2018-08-12T23:34:08.858Z,98429.38
2018-08-12T23:36:37.712Z,98427.02
2018-08-12T23:39:09.264Z,98423.16
2018-08-12T23:41:37.844Z,98419.32
2018-08-12T23:44:07.198Z,98420.48
2018-08-12T23:46:36.328Z,98424.84
2018-08-12T23:49:05.255Z,98423.13
2018-08-12T23:51:34.604Z,98415.75
2018-08-12T23:54:03.340Z,98416.11
2018-08-12T23:56:32.031Z,98418.75
2018-08-12T23:59:01.405Z,98412.75
